sensor_id;sensor_type;location;lat;lon;timestamp;P1;durP1;ratioP1;P2;durP2;ratioP2
73697;SDS011;62004;42.566;23.164;2023-03-23T00:01:58;4.27;;;3.90;;
73697;SDS011;62004;42.566;23.164;2023-03-23T00:04:23;72.33;;;26.83;;
73697;SDS011;62004;42.566;23.164;2023-03-23T00:06:51;70.18;;;26.33;;
73697;SDS011;62004;42.566;23.164;2023-03-23T00:09:17;71.37;;;27.13;;
73697;SDS011;62004;42.566;23.164;2023-03-23T00:11:48;67.70;;;25.83;;
73697;SDS011;62004;42.566;23.164;2023-03-23T00:14:14;56.30;;;21.55;;
73697;SDS011;62004;42.566;23.164;2023-03-23T00:16:39;6.13;;;5.37;;
73697;SDS011;62004;42.566;23.164;2023-03-23T00:19:10;66.20;;;25.25;;
73697;SDS011;62004;42.566;23.164;2023-03-23T00:21:38;8.27;;;5.50;;
73697;SDS011;62004;42.566;23.164;2023-03-23T00:26:33;57.10;;;22.25;;
73697;SDS011;62004;42.566;23.164;2023-03-23T00:29:00;14.20;;;8.25;;
73697;SDS011;62004;42.566;23.164;2023-03-23T00:31:25;52.63;;;20.98;;
73697;SDS011;62004;42.566;23.164;2023-03-23T00:33:56;55.58;;;22.05;;
73697;SDS011;62004;42.566;23.164;2023-03-23T00:36:21;11.87;;;6.97;;
73697;SDS011;62004;42.566;23.164;2023-03-23T00:38:48;53.50;;;21.50;;
73697;SDS011;62004;42.566;23.164;2023-03-23T00:41:13;46.03;;;18.83;;
73697;SDS011;62004;42.566;23.164;2023-03-23T00:43:40;53.03;;;21.20;;
73697;SDS011;62004;42.566;23.164;2023-03-23T00:46:05;9.83;;;6.13;;
73697;SDS011;62004;42.566;23.164;2023-03-23T00:48:34;63.15;;;24.33;;
73697;SDS011;62004;42.566;23.164;2023-03-23T00:51:01;67.88;;;26.20;;
73697;SDS011;62004;42.566;23.164;2023-03-23T00:53:31;69.15;;;26.00;;
73697;SDS011;62004;42.566;23.164;2023-03-23T00:55:56;62.42;;;23.75;;
73697;SDS011;62004;42.566;23.164;2023-03-23T00:58:21;70.57;;;27.00;;
73697;SDS011;62004;42.566;23.164;2023-03-23T01:00:46;71.43;;;27.13;;
73697;SDS011;62004;42.566;23.164;2023-03-23T01:18:26;72.90;;;27.27;;
73697;SDS011;62004;42.566;23.164;2023-03-23T01:20:51;72.68;;;27.30;;
73697;SDS011;62004;42.566;23.164;2023-03-23T01:23:17;6.00;;;5.10;;
73697;SDS011;62004;42.566;23.164;2023-03-23T01:25:42;4.57;;;4.27;;
73697;SDS011;62004;42.566;23.164;2023-03-23T01:28:08;60.20;;;22.75;;
73697;SDS011;62004;42.566;23.164;2023-03-23T01:30:35;65.20;;;24.60;;
73697;SDS011;62004;42.566;23.164;2023-03-23T01:33:00;4.37;;;4.07;;
73697;SDS011;62004;42.566;23.164;2023-03-23T01:35:29;72.72;;;27.42;;
73697;SDS011;62004;42.566;23.164;2023-03-23T01:37:54;72.78;;;27.08;;
73697;SDS011;62004;42.566;23.164;2023-03-23T01:40:20;72.20;;;26.90;;
73697;SDS011;62004;42.566;23.164;2023-03-23T01:42:45;72.38;;;27.42;;
73697;SDS011;62004;42.566;23.164;2023-03-23T01:45:28;72.75;;;27.10;;
73697;SDS011;62004;42.566;23.164;2023-03-23T01:48:09;72.78;;;27.23;;
73697;SDS011;62004;42.566;23.164;2023-03-23T01:50:43;72.40;;;26.80;;
73697;SDS011;62004;42.566;23.164;2023-03-23T01:53:11;72.65;;;27.23;;
73697;SDS011;62004;42.566;23.164;2023-03-23T01:55:40;75.97;;;27.88;;
73697;SDS011;62004;42.566;23.164;2023-03-23T01:58:06;72.57;;;27.00;;
73697;SDS011;62004;42.566;23.164;2023-03-23T02:00:32;72.72;;;28.00;;
73697;SDS011;62004;42.566;23.164;2023-03-23T02:02:58;70.32;;;26.20;;
73697;SDS011;62004;42.566;23.164;2023-03-23T02:05:30;5.78;;;5.18;;
73697;SDS011;62004;42.566;23.164;2023-03-23T02:07:57;70.95;;;26.95;;
73697;SDS011;62004;42.566;23.164;2023-03-23T02:10:24;72.30;;;27.08;;
73697;SDS011;62004;42.566;23.164;2023-03-23T02:12:49;72.45;;;27.33;;
73697;SDS011;62004;42.566;23.164;2023-03-23T02:15:15;71.87;;;26.60;;
73697;SDS011;62004;42.566;23.164;2023-03-23T02:30:25;5.10;;;4.68;;
73697;SDS011;62004;42.566;23.164;2023-03-23T02:33:39;65.88;;;25.63;;
73697;SDS011;62004;42.566;23.164;2023-03-23T02:35:50;57.95;;;22.52;;
73697;SDS011;62004;42.566;23.164;2023-03-23T02:38:21;65.90;;;24.88;;
73697;SDS011;62004;42.566;23.164;2023-03-23T02:40:48;66.63;;;25.77;;
73697;SDS011;62004;42.566;23.164;2023-03-23T02:43:19;6.35;;;5.38;;
73697;SDS011;62004;42.566;23.164;2023-03-23T02:45:46;9.30;;;6.18;;
73697;SDS011;62004;42.566;23.164;2023-03-23T02:48:15;36.15;;;15.27;;
73697;SDS011;62004;42.566;23.164;2023-03-23T02:50:44;61.50;;;23.90;;
73697;SDS011;62004;42.566;23.164;2023-03-23T02:53:10;63.65;;;24.30;;
73697;SDS011;62004;42.566;23.164;2023-03-23T02:55:38;64.75;;;24.80;;
73697;SDS011;62004;42.566;23.164;2023-03-23T02:58:10;6.32;;;5.50;;
73697;SDS011;62004;42.566;23.164;2023-03-23T03:00:36;41.47;;;17.58;;
73697;SDS011;62004;42.566;23.164;2023-03-23T03:03:02;11.93;;;7.88;;
73697;SDS011;62004;42.566;23.164;2023-03-23T03:18:44;30.55;;;14.00;;
73697;SDS011;62004;42.566;23.164;2023-03-23T03:21:12;34.47;;;15.13;;
73697;SDS011;62004;42.566;23.164;2023-03-23T03:23:39;29.80;;;13.23;;
73697;SDS011;62004;42.566;23.164;2023-03-23T03:26:07;14.70;;;7.95;;
73697;SDS011;62004;42.566;23.164;2023-03-23T03:28:34;29.83;;;13.13;;
73697;SDS011;62004;42.566;23.164;2023-03-23T03:31:01;17.77;;;9.13;;
73697;SDS011;62004;42.566;23.164;2023-03-23T03:33:28;33.83;;;14.65;;
73697;SDS011;62004;42.566;23.164;2023-03-23T03:35:56;13.40;;;7.45;;
73697;SDS011;62004;42.566;23.164;2023-03-23T03:38:22;32.55;;;14.00;;
73697;SDS011;62004;42.566;23.164;2023-03-23T03:40:47;11.73;;;7.65;;
73697;SDS011;62004;42.566;23.164;2023-03-23T03:43:13;15.33;;;8.77;;
73697;SDS011;62004;42.566;23.164;2023-03-23T03:45:38;13.03;;;7.50;;
73697;SDS011;62004;42.566;23.164;2023-03-23T03:48:04;11.15;;;6.57;;
73697;SDS011;62004;42.566;23.164;2023-03-23T03:50:32;29.38;;;13.20;;
73697;SDS011;62004;42.566;23.164;2023-03-23T03:52:57;28.73;;;12.90;;
73697;SDS011;62004;42.566;23.164;2023-03-23T03:55:23;29.05;;;13.15;;
73697;SDS011;62004;42.566;23.164;2023-03-23T03:57:48;10.20;;;6.30;;
73697;SDS011;62004;42.566;23.164;2023-03-23T04:00:14;8.20;;;5.87;;
73697;SDS011;62004;42.566;23.164;2023-03-23T04:02:49;27.85;;;12.38;;
73697;SDS011;62004;42.566;23.164;2023-03-23T04:05:19;43.05;;;18.30;;
73697;SDS011;62004;42.566;23.164;2023-03-23T04:07:45;11.60;;;6.53;;
73697;SDS011;62004;42.566;23.164;2023-03-23T04:10:14;15.60;;;8.43;;
73697;SDS011;62004;42.566;23.164;2023-03-23T04:12:40;14.07;;;8.27;;
73697;SDS011;62004;42.566;23.164;2023-03-23T04:15:06;16.90;;;8.90;;
73697;SDS011;62004;42.566;23.164;2023-03-23T04:17:32;12.48;;;7.57;;
73697;SDS011;62004;42.566;23.164;2023-03-23T04:20:00;15.43;;;8.30;;
73697;SDS011;62004;42.566;23.164;2023-03-23T04:22:26;15.23;;;8.52;;
73697;SDS011;62004;42.566;23.164;2023-03-23T04:24:58;10.95;;;6.95;;
73697;SDS011;62004;42.566;23.164;2023-03-23T04:27:24;12.57;;;7.28;;
73697;SDS011;62004;42.566;23.164;2023-03-23T04:29:49;31.65;;;14.00;;
73697;SDS011;62004;42.566;23.164;2023-03-23T04:32:15;34.05;;;15.15;;
73697;SDS011;62004;42.566;23.164;2023-03-23T04:34:43;14.65;;;7.97;;
73697;SDS011;62004;42.566;23.164;2023-03-23T04:37:08;25.25;;;11.65;;
73697;SDS011;62004;42.566;23.164;2023-03-23T04:39:33;23.50;;;10.97;;
73697;SDS011;62004;42.566;23.164;2023-03-23T04:41:59;25.17;;;11.97;;
73697;SDS011;62004;42.566;23.164;2023-03-23T04:44:27;10.07;;;6.63;;
73697;SDS011;62004;42.566;23.164;2023-03-23T04:46:53;15.93;;;8.55;;
73697;SDS011;62004;42.566;23.164;2023-03-23T04:49:19;22.42;;;11.50;;
73697;SDS011;62004;42.566;23.164;2023-03-23T04:51:46;33.78;;;14.70;;
73697;SDS011;62004;42.566;23.164;2023-03-23T04:54:12;18.63;;;9.43;;
73697;SDS011;62004;42.566;23.164;2023-03-23T04:56:37;39.13;;;17.08;;
73697;SDS011;62004;42.566;23.164;2023-03-23T04:59:03;33.00;;;14.13;;
73697;SDS011;62004;42.566;23.164;2023-03-23T05:01:28;12.50;;;7.23;;
73697;SDS011;62004;42.566;23.164;2023-03-23T05:03:54;45.08;;;18.33;;
73697;SDS011;62004;42.566;23.164;2023-03-23T05:06:19;18.30;;;9.57;;
73697;SDS011;62004;42.566;23.164;2023-03-23T05:08:45;46.63;;;18.73;;
73697;SDS011;62004;42.566;23.164;2023-03-23T05:11:10;11.60;;;6.70;;
73697;SDS011;62004;42.566;23.164;2023-03-23T05:13:37;59.15;;;23.30;;
73697;SDS011;62004;42.566;23.164;2023-03-23T05:16:03;66.57;;;25.48;;
73697;SDS011;62004;42.566;23.164;2023-03-23T05:18:28;76.82;;;28.35;;
73697;SDS011;62004;42.566;23.164;2023-03-23T05:20:54;77.43;;;25.58;;
73697;SDS011;62004;42.566;23.164;2023-03-23T05:23:19;77.87;;;24.70;;
73697;SDS011;62004;42.566;23.164;2023-03-23T05:28:14;80.57;;;24.47;;
73697;SDS011;62004;42.566;23.164;2023-03-23T05:30:39;80.67;;;24.83;;
73697;SDS011;62004;42.566;23.164;2023-03-23T05:33:09;80.65;;;25.15;;
73697;SDS011;62004;42.566;23.164;2023-03-23T05:35:34;82.03;;;27.40;;
73697;SDS011;62004;42.566;23.164;2023-03-23T05:37:59;82.97;;;27.58;;
73697;SDS011;62004;42.566;23.164;2023-03-23T05:40:25;82.47;;;28.43;;
73697;SDS011;62004;42.566;23.164;2023-03-23T05:42:50;81.75;;;27.10;;
73697;SDS011;62004;42.566;23.164;2023-03-23T05:45:16;83.85;;;28.70;;
73697;SDS011;62004;42.566;23.164;2023-03-23T05:47:42;84.70;;;29.60;;
73697;SDS011;62004;42.566;23.164;2023-03-23T05:50:08;84.60;;;29.30;;
73697;SDS011;62004;42.566;23.164;2023-03-23T05:52:36;84.82;;;29.27;;
73697;SDS011;62004;42.566;23.164;2023-03-23T05:55:02;84.43;;;29.05;;
73697;SDS011;62004;42.566;23.164;2023-03-23T05:57:28;84.22;;;28.95;;
73697;SDS011;62004;42.566;23.164;2023-03-23T05:59:53;85.22;;;29.27;;
73697;SDS011;62004;42.566;23.164;2023-03-23T06:02:19;84.33;;;28.53;;
73697;SDS011;62004;42.566;23.164;2023-03-23T06:04:44;84.40;;;29.30;;
73697;SDS011;62004;42.566;23.164;2023-03-23T06:07:09;84.30;;;28.25;;
73697;SDS011;62004;42.566;23.164;2023-03-23T06:09:39;85.43;;;29.38;;
73697;SDS011;62004;42.566;23.164;2023-03-23T06:12:05;88.13;;;30.90;;
73697;SDS011;62004;42.566;23.164;2023-03-23T06:14:31;87.72;;;29.50;;
73697;SDS011;62004;42.566;23.164;2023-03-23T06:16:56;88.68;;;30.17;;
73697;SDS011;62004;42.566;23.164;2023-03-23T06:19:21;89.03;;;30.05;;
73697;SDS011;62004;42.566;23.164;2023-03-23T06:21:48;89.97;;;30.50;;
73697;SDS011;62004;42.566;23.164;2023-03-23T06:24:13;90.47;;;32.90;;
73697;SDS011;62004;42.566;23.164;2023-03-23T06:26:39;90.57;;;32.07;;
73697;SDS011;62004;42.566;23.164;2023-03-23T06:29:06;90.57;;;33.65;;
73697;SDS011;62004;42.566;23.164;2023-03-23T06:31:36;94.22;;;34.45;;
73697;SDS011;62004;42.566;23.164;2023-03-23T06:34:02;96.57;;;35.15;;
73697;SDS011;62004;42.566;23.164;2023-03-23T06:36:27;96.75;;;33.20;;
73697;SDS011;62004;42.566;23.164;2023-03-23T06:38:53;98.20;;;32.50;;
73697;SDS011;62004;42.566;23.164;2023-03-23T06:41:18;99.47;;;33.33;;
73697;SDS011;62004;42.566;23.164;2023-03-23T06:43:43;102.35;;;32.97;;
73697;SDS011;62004;42.566;23.164;2023-03-23T06:46:11;101.10;;;33.22;;
73697;SDS011;62004;42.566;23.164;2023-03-23T06:48:36;105.60;;;33.23;;
73697;SDS011;62004;42.566;23.164;2023-03-23T06:51:01;110.13;;;34.17;;
73697;SDS011;62004;42.566;23.164;2023-03-23T06:53:27;111.78;;;33.90;;
73697;SDS011;62004;42.566;23.164;2023-03-23T06:55:52;118.78;;;33.72;;
73697;SDS011;62004;42.566;23.164;2023-03-23T06:58:18;127.70;;;33.87;;
73697;SDS011;62004;42.566;23.164;2023-03-23T07:00:43;128.77;;;33.55;;
73697;SDS011;62004;42.566;23.164;2023-03-23T07:03:09;130.63;;;32.78;;
73697;SDS011;62004;42.566;23.164;2023-03-23T07:05:34;130.27;;;32.70;;
73697;SDS011;62004;42.566;23.164;2023-03-23T07:08:00;132.55;;;32.38;;
73697;SDS011;62004;42.566;23.164;2023-03-23T07:10:26;137.30;;;32.20;;
73697;SDS011;62004;42.566;23.164;2023-03-23T07:12:51;138.10;;;30.77;;
73697;SDS011;62004;42.566;23.164;2023-03-23T07:15:16;134.23;;;30.80;;
73697;SDS011;62004;42.566;23.164;2023-03-23T07:17:41;132.43;;;32.65;;
73697;SDS011;62004;42.566;23.164;2023-03-23T07:20:07;136.10;;;34.00;;
73697;SDS011;62004;42.566;23.164;2023-03-23T07:22:32;130.18;;;32.08;;
73697;SDS011;62004;42.566;23.164;2023-03-23T07:24:58;131.07;;;31.73;;
73697;SDS011;62004;42.566;23.164;2023-03-23T07:27:23;131.00;;;31.93;;
73697;SDS011;62004;42.566;23.164;2023-03-23T07:29:49;129.43;;;30.88;;
73697;SDS011;62004;42.566;23.164;2023-03-23T07:32:14;128.38;;;31.83;;
73697;SDS011;62004;42.566;23.164;2023-03-23T07:34:40;121.00;;;32.57;;
73697;SDS011;62004;42.566;23.164;2023-03-23T07:37:06;117.93;;;31.55;;
73697;SDS011;62004;42.566;23.164;2023-03-23T07:39:32;115.38;;;32.10;;
73697;SDS011;62004;42.566;23.164;2023-03-23T07:41:58;112.20;;;31.67;;
73697;SDS011;62004;42.566;23.164;2023-03-23T07:44:23;103.68;;;32.88;;
73697;SDS011;62004;42.566;23.164;2023-03-23T07:46:48;97.27;;;29.93;;
73697;SDS011;62004;42.566;23.164;2023-03-23T07:49:14;97.47;;;31.17;;
73697;SDS011;62004;42.566;23.164;2023-03-23T07:51:40;96.32;;;29.92;;
73697;SDS011;62004;42.566;23.164;2023-03-23T07:54:06;95.72;;;30.23;;
73697;SDS011;62004;42.566;23.164;2023-03-23T07:56:32;90.32;;;30.17;;
73697;SDS011;62004;42.566;23.164;2023-03-23T07:58:58;90.65;;;30.20;;
73697;SDS011;62004;42.566;23.164;2023-03-23T08:01:23;91.93;;;29.43;;
73697;SDS011;62004;42.566;23.164;2023-03-23T08:03:49;91.95;;;30.27;;
73697;SDS011;62004;42.566;23.164;2023-03-23T08:06:15;90.05;;;29.27;;
73697;SDS011;62004;42.566;23.164;2023-03-23T08:08:40;90.00;;;29.40;;
73697;SDS011;62004;42.566;23.164;2023-03-23T08:11:05;91.07;;;29.43;;
73697;SDS011;62004;42.566;23.164;2023-03-23T08:13:31;90.25;;;29.13;;
73697;SDS011;62004;42.566;23.164;2023-03-23T08:15:58;91.45;;;29.90;;
73697;SDS011;62004;42.566;23.164;2023-03-23T08:18:23;90.82;;;30.00;;
73697;SDS011;62004;42.566;23.164;2023-03-23T08:20:49;90.90;;;30.30;;
73697;SDS011;62004;42.566;23.164;2023-03-23T08:23:15;91.43;;;29.90;;
73697;SDS011;62004;42.566;23.164;2023-03-23T08:25:41;90.60;;;28.73;;
73697;SDS011;62004;42.566;23.164;2023-03-23T08:28:07;91.07;;;29.48;;
73697;SDS011;62004;42.566;23.164;2023-03-23T08:30:34;91.18;;;29.42;;
73697;SDS011;62004;42.566;23.164;2023-03-23T08:33:01;90.88;;;28.95;;
73697;SDS011;62004;42.566;23.164;2023-03-23T08:35:26;91.00;;;29.43;;
73697;SDS011;62004;42.566;23.164;2023-03-23T08:37:53;90.75;;;28.83;;
73697;SDS011;62004;42.566;23.164;2023-03-23T08:40:20;90.22;;;29.08;;
73697;SDS011;62004;42.566;23.164;2023-03-23T08:42:46;91.05;;;29.15;;
73697;SDS011;62004;42.566;23.164;2023-03-23T08:45:14;91.18;;;29.30;;
73697;SDS011;62004;42.566;23.164;2023-03-23T08:47:40;90.40;;;29.00;;
73697;SDS011;62004;42.566;23.164;2023-03-23T08:50:06;91.05;;;28.88;;
73697;SDS011;62004;42.566;23.164;2023-03-23T08:52:32;91.05;;;29.50;;
73697;SDS011;62004;42.566;23.164;2023-03-23T08:54:58;90.90;;;29.52;;
73697;SDS011;62004;42.566;23.164;2023-03-23T08:57:24;90.93;;;29.57;;
73697;SDS011;62004;42.566;23.164;2023-03-23T08:59:49;90.85;;;28.98;;
73697;SDS011;62004;42.566;23.164;2023-03-23T09:02:15;91.28;;;29.83;;
73697;SDS011;62004;42.566;23.164;2023-03-23T09:04:41;91.93;;;30.92;;
73697;SDS011;62004;42.566;23.164;2023-03-23T09:07:10;90.53;;;28.98;;
73697;SDS011;62004;42.566;23.164;2023-03-23T09:09:37;91.30;;;29.70;;
73697;SDS011;62004;42.566;23.164;2023-03-23T09:12:04;91.18;;;29.60;;
73697;SDS011;62004;42.566;23.164;2023-03-23T09:14:29;90.95;;;28.85;;
73697;SDS011;62004;42.566;23.164;2023-03-23T09:16:55;91.28;;;29.85;;
73697;SDS011;62004;42.566;23.164;2023-03-23T09:19:20;91.53;;;29.10;;
73697;SDS011;62004;42.566;23.164;2023-03-23T09:21:45;92.68;;;29.58;;
73697;SDS011;62004;42.566;23.164;2023-03-23T09:24:11;91.75;;;28.58;;
73697;SDS011;62004;42.566;23.164;2023-03-23T09:26:36;91.72;;;29.73;;
73697;SDS011;62004;42.566;23.164;2023-03-23T09:29:01;92.13;;;29.17;;
73697;SDS011;62004;42.566;23.164;2023-03-23T09:31:27;92.15;;;29.52;;
73697;SDS011;62004;42.566;23.164;2023-03-23T09:33:53;92.45;;;29.38;;
73697;SDS011;62004;42.566;23.164;2023-03-23T09:36:21;92.20;;;29.25;;
73697;SDS011;62004;42.566;23.164;2023-03-23T09:38:46;93.10;;;29.52;;
73697;SDS011;62004;42.566;23.164;2023-03-23T09:48:54;92.72;;;29.55;;
73697;SDS011;62004;42.566;23.164;2023-03-23T09:54:01;92.43;;;29.15;;
73697;SDS011;62004;42.566;23.164;2023-03-23T09:56:30;92.30;;;29.13;;
73697;SDS011;62004;42.566;23.164;2023-03-23T09:59:20;93.32;;;30.05;;
73697;SDS011;62004;42.566;23.164;2023-03-23T10:01:53;92.72;;;29.20;;
73697;SDS011;62004;42.566;23.164;2023-03-23T10:06:45;91.87;;;29.07;;
73697;SDS011;62004;42.566;23.164;2023-03-23T10:09:13;92.35;;;28.70;;
73697;SDS011;62004;42.566;23.164;2023-03-23T10:11:45;92.57;;;28.92;;
73697;SDS011;62004;42.566;23.164;2023-03-23T10:14:31;92.75;;;28.92;;
73697;SDS011;62004;42.566;23.164;2023-03-23T10:19:34;92.50;;;28.83;;
73697;SDS011;62004;42.566;23.164;2023-03-23T10:22:03;93.18;;;29.45;;
73697;SDS011;62004;42.566;23.164;2023-03-23T10:24:34;92.70;;;28.98;;
73697;SDS011;62004;42.566;23.164;2023-03-23T10:29:47;92.28;;;28.48;;
73697;SDS011;62004;42.566;23.164;2023-03-23T10:37:13;92.75;;;29.38;;
73697;SDS011;62004;42.566;23.164;2023-03-23T10:39:49;92.20;;;28.67;;
73697;SDS011;62004;42.566;23.164;2023-03-23T10:42:25;92.82;;;29.08;;
73697;SDS011;62004;42.566;23.164;2023-03-23T10:47:17;92.72;;;28.95;;
73697;SDS011;62004;42.566;23.164;2023-03-23T10:49:50;93.28;;;29.75;;
73697;SDS011;62004;42.566;23.164;2023-03-23T10:52:32;92.97;;;29.30;;
73697;SDS011;62004;42.566;23.164;2023-03-23T10:55:10;92.72;;;28.90;;
73697;SDS011;62004;42.566;23.164;2023-03-23T10:57:36;93.30;;;29.48;;
73697;SDS011;62004;42.566;23.164;2023-03-23T11:00:06;92.00;;;28.10;;
73697;SDS011;62004;42.566;23.164;2023-03-23T11:02:38;92.63;;;28.77;;
73697;SDS011;62004;42.566;23.164;2023-03-23T11:05:06;92.97;;;28.92;;
73697;SDS011;62004;42.566;23.164;2023-03-23T11:07:33;92.43;;;28.77;;
73697;SDS011;62004;42.566;23.164;2023-03-23T11:12:45;93.30;;;29.88;;
73697;SDS011;62004;42.566;23.164;2023-03-23T11:15:20;92.40;;;28.63;;
73697;SDS011;62004;42.566;23.164;2023-03-23T11:17:54;93.30;;;28.70;;
73697;SDS011;62004;42.566;23.164;2023-03-23T11:20:20;92.30;;;28.63;;
73697;SDS011;62004;42.566;23.164;2023-03-23T11:22:46;92.72;;;28.88;;
73697;SDS011;62004;42.566;23.164;2023-03-23T11:25:12;93.22;;;28.98;;
73697;SDS011;62004;42.566;23.164;2023-03-23T11:27:38;91.32;;;28.50;;
73697;SDS011;62004;42.566;23.164;2023-03-23T11:30:08;93.18;;;29.77;;
73697;SDS011;62004;42.566;23.164;2023-03-23T11:32:34;93.00;;;29.13;;
73697;SDS011;62004;42.566;23.164;2023-03-23T11:35:02;93.00;;;29.63;;
73697;SDS011;62004;42.566;23.164;2023-03-23T11:37:39;92.72;;;29.17;;
73697;SDS011;62004;42.566;23.164;2023-03-23T11:50:14;92.88;;;28.10;;
73697;SDS011;62004;42.566;23.164;2023-03-23T11:52:51;93.75;;;29.02;;
73697;SDS011;62004;42.566;23.164;2023-03-23T11:55:23;93.72;;;29.25;;
73697;SDS011;62004;42.566;23.164;2023-03-23T11:57:50;94.15;;;29.52;;
73697;SDS011;62004;42.566;23.164;2023-03-23T12:00:16;92.90;;;28.73;;
73697;SDS011;62004;42.566;23.164;2023-03-23T12:13:31;93.13;;;29.33;;
73697;SDS011;62004;42.566;23.164;2023-03-23T12:19:10;92.78;;;28.75;;
73697;SDS011;62004;42.566;23.164;2023-03-23T12:47:27;91.60;;;28.70;;
73697;SDS011;62004;42.566;23.164;2023-03-23T12:49:58;91.75;;;28.67;;
73697;SDS011;62004;42.566;23.164;2023-03-23T12:52:28;92.47;;;29.13;;
73697;SDS011;62004;42.566;23.164;2023-03-23T12:55:01;92.05;;;29.23;;
73697;SDS011;62004;42.566;23.164;2023-03-23T12:57:35;91.53;;;29.10;;
73697;SDS011;62004;42.566;23.164;2023-03-23T13:00:16;90.88;;;29.08;;
73697;SDS011;62004;42.566;23.164;2023-03-23T13:02:53;90.70;;;29.00;;
73697;SDS011;62004;42.566;23.164;2023-03-23T13:07:47;90.85;;;29.20;;
73697;SDS011;62004;42.566;23.164;2023-03-23T13:12:38;90.50;;;28.77;;
73697;SDS011;62004;42.566;23.164;2023-03-23T13:25:30;89.75;;;28.63;;
73697;SDS011;62004;42.566;23.164;2023-03-23T13:28:01;89.90;;;29.02;;
73697;SDS011;62004;42.566;23.164;2023-03-23T13:30:27;89.55;;;28.88;;
73697;SDS011;62004;42.566;23.164;2023-03-23T13:33:00;89.68;;;28.48;;
73697;SDS011;62004;42.566;23.164;2023-03-23T13:35:26;90.10;;;28.98;;
73697;SDS011;62004;42.566;23.164;2023-03-23T13:37:58;90.72;;;30.13;;
73697;SDS011;62004;42.566;23.164;2023-03-23T13:40:27;90.03;;;28.87;;
73697;SDS011;62004;42.566;23.164;2023-03-23T13:42:55;90.72;;;30.30;;
73697;SDS011;62004;42.566;23.164;2023-03-23T13:45:22;89.75;;;28.83;;
73697;SDS011;62004;42.566;23.164;2023-03-23T13:47:49;90.72;;;29.42;;
73697;SDS011;62004;42.566;23.164;2023-03-23T13:52:51;89.70;;;28.63;;
73697;SDS011;62004;42.566;23.164;2023-03-23T14:05:44;90.20;;;28.95;;
73697;SDS011;62004;42.566;23.164;2023-03-23T14:10:41;88.93;;;28.77;;
73697;SDS011;62004;42.566;23.164;2023-03-23T14:13:14;90.32;;;29.55;;
73697;SDS011;62004;42.566;23.164;2023-03-23T14:15:42;89.93;;;28.98;;
73697;SDS011;62004;42.566;23.164;2023-03-23T14:18:11;90.18;;;28.95;;
73697;SDS011;62004;42.566;23.164;2023-03-23T14:20:38;89.63;;;28.63;;
73697;SDS011;62004;42.566;23.164;2023-03-23T14:23:04;89.38;;;29.00;;
73697;SDS011;62004;42.566;23.164;2023-03-23T14:25:30;88.88;;;28.58;;
73697;SDS011;62004;42.566;23.164;2023-03-23T14:27:57;89.13;;;28.73;;
73697;SDS011;62004;42.566;23.164;2023-03-23T14:30:23;90.20;;;29.35;;
73697;SDS011;62004;42.566;23.164;2023-03-23T14:32:50;89.43;;;28.25;;
73697;SDS011;62004;42.566;23.164;2023-03-23T14:35:22;89.72;;;29.70;;
73697;SDS011;62004;42.566;23.164;2023-03-23T14:37:48;89.40;;;28.98;;
73697;SDS011;62004;42.566;23.164;2023-03-23T14:40:14;89.57;;;28.98;;
73697;SDS011;62004;42.566;23.164;2023-03-23T14:42:40;89.57;;;29.48;;
73697;SDS011;62004;42.566;23.164;2023-03-23T14:45:06;89.53;;;29.30;;
73697;SDS011;62004;42.566;23.164;2023-03-23T14:47:38;89.97;;;29.10;;
73697;SDS011;62004;42.566;23.164;2023-03-23T14:50:06;90.43;;;29.95;;
73697;SDS011;62004;42.566;23.164;2023-03-23T14:52:33;90.15;;;29.38;;
73697;SDS011;62004;42.566;23.164;2023-03-23T14:55:13;89.78;;;28.83;;
73697;SDS011;62004;42.566;23.164;2023-03-23T14:57:40;89.82;;;28.88;;
73697;SDS011;62004;42.566;23.164;2023-03-23T15:00:10;90.00;;;29.23;;
73697;SDS011;62004;42.566;23.164;2023-03-23T15:02:37;88.90;;;28.75;;
73697;SDS011;62004;42.566;23.164;2023-03-23T15:05:05;89.05;;;29.05;;
73697;SDS011;62004;42.566;23.164;2023-03-23T15:07:34;89.10;;;28.75;;
73697;SDS011;62004;42.566;23.164;2023-03-23T15:10:00;89.63;;;29.73;;
73697;SDS011;62004;42.566;23.164;2023-03-23T15:12:28;88.78;;;28.50;;
73697;SDS011;62004;42.566;23.164;2023-03-23T15:14:56;89.13;;;28.90;;
73697;SDS011;62004;42.566;23.164;2023-03-23T15:17:26;88.65;;;28.35;;
73697;SDS011;62004;42.566;23.164;2023-03-23T15:19:52;89.53;;;29.77;;
73697;SDS011;62004;42.566;23.164;2023-03-23T15:24:44;88.57;;;28.67;;
73697;SDS011;62004;42.566;23.164;2023-03-23T15:27:17;88.40;;;28.67;;
73697;SDS011;62004;42.566;23.164;2023-03-23T15:29:46;88.72;;;28.83;;
73697;SDS011;62004;42.566;23.164;2023-03-23T15:32:12;89.07;;;29.70;;
73697;SDS011;62004;42.566;23.164;2023-03-23T15:34:37;88.78;;;30.00;;
73697;SDS011;62004;42.566;23.164;2023-03-23T15:37:05;87.93;;;28.65;;
73697;SDS011;62004;42.566;23.164;2023-03-23T15:39:31;88.72;;;29.80;;
73697;SDS011;62004;42.566;23.164;2023-03-23T15:41:57;87.95;;;28.52;;
73697;SDS011;62004;42.566;23.164;2023-03-23T15:46:49;88.13;;;28.73;;
73697;SDS011;62004;42.566;23.164;2023-03-23T15:49:15;88.30;;;28.60;;
73697;SDS011;62004;42.566;23.164;2023-03-23T15:51:40;88.07;;;29.10;;
73697;SDS011;62004;42.566;23.164;2023-03-23T15:54:07;88.30;;;28.67;;
73697;SDS011;62004;42.566;23.164;2023-03-23T15:56:34;87.80;;;28.77;;
73697;SDS011;62004;42.566;23.164;2023-03-23T15:58:59;88.22;;;29.70;;
73697;SDS011;62004;42.566;23.164;2023-03-23T16:01:28;87.70;;;28.83;;
73697;SDS011;62004;42.566;23.164;2023-03-23T16:03:58;87.97;;;28.98;;
73697;SDS011;62004;42.566;23.164;2023-03-23T16:06:25;87.50;;;29.50;;
73697;SDS011;62004;42.566;23.164;2023-03-23T16:08:53;88.00;;;29.92;;
73697;SDS011;62004;42.566;23.164;2023-03-23T16:11:21;87.63;;;30.05;;
73697;SDS011;62004;42.566;23.164;2023-03-23T16:13:46;86.95;;;28.60;;
73697;SDS011;62004;42.566;23.164;2023-03-23T16:16:13;87.30;;;28.80;;
73697;SDS011;62004;42.566;23.164;2023-03-23T16:18:39;88.07;;;30.05;;
73697;SDS011;62004;42.566;23.164;2023-03-23T16:21:05;86.60;;;29.27;;
73697;SDS011;62004;42.566;23.164;2023-03-23T16:23:31;86.85;;;29.13;;
73697;SDS011;62004;42.566;23.164;2023-03-23T16:25:56;86.30;;;28.70;;
73697;SDS011;62004;42.566;23.164;2023-03-23T16:28:21;86.20;;;28.47;;
73697;SDS011;62004;42.566;23.164;2023-03-23T16:30:46;86.70;;;29.13;;
73697;SDS011;62004;42.566;23.164;2023-03-23T16:33:12;87.22;;;29.52;;
73697;SDS011;62004;42.566;23.164;2023-03-23T16:35:37;86.73;;;28.80;;
73697;SDS011;62004;42.566;23.164;2023-03-23T16:38:03;86.32;;;29.13;;
73697;SDS011;62004;42.566;23.164;2023-03-23T16:40:28;86.00;;;28.33;;
73697;SDS011;62004;42.566;23.164;2023-03-23T16:42:53;86.37;;;29.23;;
73697;SDS011;62004;42.566;23.164;2023-03-23T16:45:19;86.13;;;28.65;;
73697;SDS011;62004;42.566;23.164;2023-03-23T16:47:44;85.88;;;28.75;;
73697;SDS011;62004;42.566;23.164;2023-03-23T16:50:11;85.80;;;28.85;;
73697;SDS011;62004;42.566;23.164;2023-03-23T16:52:37;85.90;;;28.45;;